createdAt,value
2022-11-25T04:02:14.284Z,7.77
2022-11-25T04:04:41.680Z,5.00
2022-11-25T04:07:09.134Z,8.20
2022-11-25T04:09:36.412Z,10.60
2022-11-25T04:12:22.006Z,10.60
2022-11-25T04:14:49.303Z,8.07
2022-11-25T04:17:16.422Z,8.50
2022-11-25T04:19:43.702Z,12.73
2022-11-25T04:22:10.813Z,8.23
2022-11-25T04:24:38.314Z,13.20
2022-11-25T04:27:05.750Z,12.80
2022-11-25T04:29:32.992Z,7.60
2022-11-25T04:32:00.140Z,14.50
2022-11-25T04:34:27.346Z,10.23
2022-11-25T04:36:54.514Z,6.87
2022-11-25T04:39:21.761Z,5.10
2022-11-25T04:41:48.896Z,7.93
2022-11-25T04:44:16.076Z,6.20
2022-11-25T04:46:44.097Z,18.53
2022-11-25T04:49:11.976Z,10.83
2022-11-25T04:51:39.214Z,12.37
2022-11-25T04:54:06.369Z,15.87
2022-11-25T04:56:33.554Z,10.93
2022-11-25T04:59:19.747Z,10.50
2022-11-25T05:01:47.000Z,13.60
2022-11-25T05:04:14.229Z,16.10
2022-11-25T05:06:41.388Z,15.33
2022-11-25T05:09:10.877Z,4.80
2022-11-25T05:11:38.087Z,7.53
2022-11-25T05:14:05.255Z,7.40
2022-11-25T05:16:32.507Z,9.67
2022-11-25T05:18:59.690Z,9.73
2022-11-25T05:21:27.190Z,8.90
2022-11-25T05:23:56.060Z,7.60
2022-11-25T05:26:23.472Z,8.10
2022-11-25T05:28:50.625Z,7.73
2022-11-25T05:31:17.859Z,8.17
2022-11-25T05:33:45.100Z,7.93
2022-11-25T05:36:12.251Z,10.00
2022-11-25T05:38:39.441Z,8.97
2022-11-25T05:41:07.729Z,13.57
2022-11-25T05:43:35.101Z,16.20
2022-11-25T05:46:06.676Z,10.30
2022-11-25T05:48:33.968Z,8.17
2022-11-25T05:51:02.614Z,8.17
2022-11-25T05:53:30.560Z,5.60
2022-11-25T05:56:00.487Z,9.00
2022-11-25T05:58:29.504Z,10.17
2022-11-25T06:00:58.118Z,10.47
2022-11-25T06:03:26.401Z,8.80
2022-11-25T06:05:55.787Z,11.27
2022-11-25T06:08:23.018Z,8.70
2022-11-25T06:10:50.207Z,13.70
2022-11-25T06:13:17.526Z,18.13
2022-11-25T06:15:45.268Z,12.07
2022-11-25T06:18:13.795Z,11.93
2022-11-25T06:20:41.065Z,13.30
2022-11-25T06:23:09.078Z,14.27
2022-11-25T06:25:36.877Z,11.53
2022-11-25T06:28:12.917Z,14.17
2022-11-25T06:30:40.564Z,11.27
2022-11-25T06:33:07.699Z,12.53
2022-11-25T06:35:35.440Z,11.63
2022-11-25T06:38:02.655Z,14.97
2022-11-25T06:40:29.833Z,15.80
2022-11-25T06:42:57.069Z,12.83
2022-11-25T06:45:24.210Z,19.00
2022-11-25T06:47:51.296Z,15.37
2022-11-25T06:50:18.608Z,13.10
2022-11-25T06:52:45.791Z,14.77
2022-11-25T06:55:12.959Z,14.73
2022-11-25T06:57:40.145Z,15.73
2022-11-25T07:00:08.046Z,13.50
2022-11-25T07:02:40.888Z,16.60
2022-11-25T07:05:11.363Z,12.83
2022-11-25T07:07:38.612Z,15.50
2022-11-25T07:10:06.529Z,16.37
2022-11-25T07:12:33.647Z,16.33
2022-11-25T07:15:00.791Z,18.80
2022-11-25T07:17:28.006Z,15.20
2022-11-25T07:19:55.254Z,22.77
2022-11-25T07:22:22.892Z,24.40
2022-11-25T07:24:50.076Z,20.00
2022-11-25T07:27:17.192Z,19.53
2022-11-25T07:29:58.265Z,19.07
2022-11-25T07:32:33.938Z,16.57
2022-11-25T07:35:01.079Z,19.73
2022-11-25T07:37:28.246Z,18.70
2022-11-25T07:39:55.426Z,21.27
2022-11-25T07:42:22.594Z,15.57
2022-11-25T07:44:49.815Z,18.60
2022-11-25T07:47:16.965Z,20.07
2022-11-25T07:49:44.142Z,18.23
2022-11-25T07:52:11.329Z,20.77
2022-11-25T07:54:38.495Z,13.87
2022-11-25T07:57:05.685Z,14.30
2022-11-25T07:59:32.929Z,32.90
2022-11-25T08:02:00.182Z,26.47
2022-11-25T08:04:27.485Z,23.97
2022-11-25T08:06:54.607Z,25.07
2022-11-25T08:09:24.024Z,23.47
2022-11-25T08:11:51.495Z,25.93
2022-11-25T08:14:19.637Z,17.03
2022-11-25T08:16:47.028Z,16.77
2022-11-25T08:19:16.622Z,19.73
2022-11-25T08:21:44.168Z,16.60
2022-11-25T08:24:19.623Z,21.53
2022-11-25T08:26:47.772Z,24.37
2022-11-25T08:29:16.652Z,26.23
2022-11-25T08:31:43.946Z,19.60
2022-11-25T08:34:18.713Z,17.93
2022-11-25T08:36:48.606Z,23.77
2022-11-25T08:39:51.296Z,28.17
2022-11-25T08:42:05.528Z,20.07
2022-11-25T08:44:32.839Z,16.80
2022-11-25T08:47:00.275Z,18.00
2022-11-25T08:49:31.191Z,21.00
2022-11-25T08:52:00.969Z,19.07
2022-11-25T08:54:28.167Z,20.07
2022-11-25T08:56:55.299Z,20.80
2022-11-25T08:59:22.926Z,18.03
2022-11-25T09:01:50.273Z,17.57
2022-11-25T09:04:17.740Z,20.80
2022-11-25T09:06:44.926Z,18.73
2022-11-25T09:09:12.074Z,16.03
2022-11-25T09:11:39.368Z,14.60
2022-11-25T09:14:06.601Z,14.33
2022-11-25T09:16:34.139Z,18.83
2022-11-25T09:19:01.441Z,15.13
2022-11-25T09:21:28.809Z,16.87
2022-11-25T09:23:56.557Z,15.03
2022-11-25T09:26:26.314Z,14.83
2022-11-25T09:28:54.558Z,8.63
2022-11-25T09:31:23.008Z,8.93
2022-11-25T09:33:50.492Z,8.87
2022-11-25T09:36:19.564Z,9.47
2022-11-25T09:38:47.214Z,7.30
2022-11-25T09:42:08.728Z,8.50
2022-11-25T09:45:13.282Z,6.20
2022-11-25T09:47:59.651Z,9.93
2022-11-25T09:51:14.524Z,7.43
2022-11-25T09:53:47.048Z,10.27
2022-11-25T09:56:45.056Z,4.13
2022-11-25T09:59:37.730Z,8.50
2022-11-25T10:02:20.332Z,6.80
2022-11-25T10:05:01.840Z,6.33
2022-11-25T10:07:39.461Z,8.47
2022-11-25T10:10:23.073Z,4.70
2022-11-25T10:12:53.323Z,6.77
2022-11-25T10:15:28.283Z,5.17
2022-11-25T10:18:01.153Z,6.20
2022-11-25T10:20:36.747Z,6.70
2022-11-25T10:23:15.962Z,7.27
2022-11-25T10:25:48.362Z,5.20
2022-11-25T10:28:18.426Z,6.17
2022-11-25T10:31:06.401Z,6.30
2022-11-25T10:33:46.498Z,7.73
2022-11-25T10:36:16.526Z,5.33
2022-11-25T10:38:55.725Z,5.37
2022-11-25T10:41:27.394Z,5.47
2022-11-25T10:43:54.636Z,7.55
2022-11-25T10:47:11.577Z,3.23
2022-11-25T10:49:48.329Z,6.32
2022-11-25T10:52:22.252Z,5.00
2022-11-25T10:55:10.739Z,6.28
2022-11-25T10:57:38.088Z,4.03
2022-11-25T11:00:12.773Z,3.25
2022-11-25T11:02:48.182Z,3.90
2022-11-25T11:05:22.180Z,5.18
2022-11-25T11:08:12.871Z,6.40
2022-11-25T11:10:40.594Z,7.15
2022-11-25T11:13:33.070Z,5.72
2022-11-25T11:16:00.544Z,5.80
2022-11-25T11:18:36.538Z,5.25
2022-11-25T11:21:06.596Z,3.90
2022-11-25T11:23:51.188Z,5.65
2022-11-25T11:26:30.772Z,5.47
2022-11-25T11:29:01.345Z,6.38
2022-11-25T11:31:35.833Z,8.85
2022-11-25T11:34:21.830Z,6.13
2022-11-25T11:37:10.582Z,6.00
2022-11-25T11:40:14.460Z,4.53
2022-11-25T11:42:47.069Z,6.20
2022-11-25T11:45:49.418Z,4.82
2022-11-25T11:48:37.285Z,8.97
2022-11-25T11:51:16.395Z,6.00
2022-11-25T11:53:58.658Z,4.23
2022-11-25T11:56:38.453Z,3.40
2022-11-25T11:59:46.753Z,5.07
2022-11-25T12:02:27.097Z,5.63
2022-11-25T12:05:06.108Z,5.20
2022-11-25T12:07:54.475Z,6.25
2022-11-25T12:10:30.267Z,4.25
2022-11-25T12:13:13.400Z,8.00
2022-11-25T12:16:00.495Z,5.95
2022-11-25T12:18:35.667Z,5.18
2022-11-25T12:21:14.429Z,6.60
2022-11-25T12:23:53.667Z,5.40
2022-11-25T12:26:46.621Z,12.45
2022-11-25T12:29:20.240Z,4.50
2022-11-25T12:31:58.540Z,4.22
2022-11-25T12:34:44.476Z,5.57
2022-11-25T12:37:17.986Z,9.73
2022-11-25T12:39:53.502Z,6.25
2022-11-25T12:42:25.786Z,7.82
2022-11-25T12:45:20.447Z,6.95
2022-11-25T12:47:47.884Z,5.05
2022-11-25T12:50:26.856Z,8.75
2022-11-25T12:53:01.451Z,5.80
2022-11-25T12:55:30.680Z,3.85
2022-11-25T12:58:06.519Z,3.33
2022-11-25T13:00:43.998Z,12.13
2022-11-25T13:03:26.302Z,8.43
2022-11-25T13:06:27.552Z,7.32
2022-11-25T13:09:01.150Z,9.05
2022-11-25T13:11:50.061Z,6.68
2022-11-25T13:14:45.828Z,8.68
2022-11-25T13:17:15.723Z,7.65
2022-11-25T13:19:43.351Z,14.73
2022-11-25T13:22:30.060Z,4.72
2022-11-25T13:25:00.812Z,7.45
2022-11-25T13:27:41.899Z,7.15
2022-11-25T13:30:31.822Z,8.18
2022-11-25T13:33:25.084Z,6.00
2022-11-25T13:35:56.661Z,9.27
2022-11-25T13:38:29.672Z,6.32
2022-11-25T13:41:24.645Z,7.93
2022-11-25T13:44:05.791Z,7.15
2022-11-25T13:46:40.198Z,7.25
2022-11-25T13:49:23.624Z,3.13
2022-11-25T13:51:53.168Z,5.15
2022-11-25T13:54:31.592Z,7.50
2022-11-25T13:57:15.082Z,10.63
2022-11-25T13:59:42.206Z,11.25
2022-11-25T14:02:27.684Z,6.20
2022-11-25T14:05:04.910Z,8.27
2022-11-25T14:08:07.820Z,6.85
2022-11-25T14:10:59.132Z,7.63
2022-11-25T14:13:49.131Z,9.57
2022-11-25T14:16:26.995Z,6.88
2022-11-25T14:19:50.110Z,5.25
2022-11-25T14:22:36.869Z,8.27
2022-11-25T14:25:12.703Z,9.27
2022-11-25T14:27:47.335Z,9.77
2022-11-25T14:30:16.427Z,10.18
2022-11-25T14:33:05.042Z,9.55
2022-11-25T14:36:03.165Z,10.48
2022-11-25T14:38:40.484Z,8.05
2022-11-25T14:41:16.200Z,7.55
2022-11-25T14:43:52.789Z,10.23
2022-11-25T14:46:22.200Z,10.20
2022-11-25T14:48:58.417Z,8.15
2022-11-25T14:51:33.259Z,10.45
2022-11-25T14:54:00.864Z,8.13
2022-11-25T14:56:30.639Z,8.48
2022-11-25T14:58:59.068Z,10.27
2022-11-25T15:01:29.438Z,10.38
2022-11-25T15:04:19.607Z,11.00
2022-11-25T15:06:53.145Z,9.38
2022-11-25T15:09:26.894Z,14.32
2022-11-25T15:11:56.165Z,6.63
2022-11-25T15:14:33.997Z,15.32
2022-11-25T15:17:06.753Z,6.75
2022-11-25T15:19:36.347Z,13.57
2022-11-25T15:22:22.478Z,11.80
2022-11-25T15:24:55.597Z,8.93
2022-11-25T15:27:27.321Z,4.30
2022-11-25T15:29:56.423Z,13.55
2022-11-25T15:32:29.388Z,11.75
2022-11-25T15:34:59.642Z,43.13
2022-11-25T15:37:27.737Z,5.95
2022-11-25T15:40:32.479Z,17.40
2022-11-25T15:43:06.100Z,11.27
2022-11-25T15:46:00.110Z,11.03
2022-11-25T15:48:46.419Z,10.53
2022-11-25T15:51:34.361Z,10.63
2022-11-25T15:54:13.563Z,12.70
2022-11-25T15:56:46.801Z,11.43
2022-11-25T15:59:45.981Z,8.10
2022-11-25T16:02:44.119Z,8.53
2022-11-25T16:05:14.296Z,10.70
2022-11-25T16:07:50.732Z,9.23
2022-11-25T16:10:34.057Z,9.00
2022-11-25T16:13:23.344Z,11.10
2022-11-25T16:16:24.113Z,10.20
2022-11-25T16:19:18.955Z,12.83
2022-11-25T16:21:58.711Z,9.90
2022-11-25T16:24:49.213Z,7.63
2022-11-25T16:27:21.340Z,5.50
2022-11-25T16:29:57.612Z,21.17
2022-11-25T16:32:30.742Z,10.07
2022-11-25T16:35:16.465Z,10.53
2022-11-25T16:40:30.850Z,6.00
2022-11-25T16:42:58.060Z,12.77
2022-11-25T16:45:28.005Z,23.70
2022-11-25T16:47:55.481Z,14.53
2022-11-25T16:50:22.826Z,10.30
2022-11-25T16:52:50.098Z,13.60
2022-11-25T16:55:18.613Z,5.53
2022-11-25T16:57:46.122Z,13.50
2022-11-25T17:00:16.843Z,9.87
2022-11-25T17:02:45.019Z,18.33
2022-11-25T17:05:21.236Z,11.37
2022-11-25T17:07:52.604Z,11.00
2022-11-25T17:10:21.271Z,8.57
2022-11-25T17:12:49.516Z,13.33
2022-11-25T17:15:19.400Z,9.77
2022-11-25T17:17:48.619Z,13.47
2022-11-25T17:20:21.837Z,11.13
2022-11-25T17:22:49.509Z,20.10
2022-11-25T17:25:17.342Z,30.23
2022-11-25T17:27:48.011Z,15.20
2022-11-25T17:30:27.430Z,12.37
2022-11-25T17:33:06.955Z,14.87
2022-11-25T17:35:34.091Z,10.33
2022-11-25T17:38:01.633Z,10.23
2022-11-25T17:40:28.882Z,9.77
2022-11-25T17:42:56.156Z,12.47
2022-11-25T17:45:23.397Z,21.10
2022-11-25T17:47:50.635Z,10.03
2022-11-25T17:50:23.466Z,14.67
2022-11-25T17:52:51.430Z,15.67
2022-11-25T17:55:22.902Z,12.20
2022-11-25T17:57:50.275Z,12.23
2022-11-25T18:00:21.613Z,8.87
2022-11-25T18:02:49.715Z,14.13
2022-11-25T18:05:20.423Z,11.07
2022-11-25T18:07:47.987Z,10.67
2022-11-25T18:10:18.083Z,15.40
2022-11-25T18:12:47.261Z,12.80
2022-11-25T18:15:16.616Z,9.33
2022-11-25T18:17:44.362Z,14.53
2022-11-25T18:20:18.652Z,7.90
2022-11-25T18:22:46.241Z,13.57
2022-11-25T18:25:15.504Z,9.03
2022-11-25T18:27:43.830Z,10.07
2022-11-25T18:30:20.041Z,15.37
2022-11-25T18:32:48.404Z,5.93
2022-11-25T18:35:21.973Z,9.07
2022-11-25T18:37:49.270Z,12.67
2022-11-25T18:40:17.294Z,8.07
2022-11-25T18:42:47.637Z,13.33
2022-11-25T18:45:20.297Z,14.50
2022-11-25T18:47:48.206Z,16.87
2022-11-25T18:50:22.212Z,10.57
2022-11-25T18:52:49.917Z,24.47
2022-11-25T18:55:19.123Z,31.70
2022-11-25T18:57:49.097Z,29.40
2022-11-25T19:00:32.292Z,24.60
2022-11-25T19:03:00.311Z,34.20
2022-11-25T19:05:32.999Z,36.83
2022-11-25T19:08:01.187Z,22.63
2022-11-25T19:10:31.685Z,14.77
2022-11-25T19:13:02.689Z,16.80
2022-11-25T19:15:29.925Z,12.50
2022-11-25T19:17:59.449Z,12.90
2022-11-25T19:20:28.385Z,13.83
2022-11-25T19:23:00.578Z,13.07
2022-11-25T19:25:29.278Z,9.83
2022-11-25T19:27:59.170Z,13.70
2022-11-25T19:30:30.402Z,10.90
2022-11-25T19:33:01.466Z,12.87
2022-11-25T19:35:37.377Z,12.97
2022-11-25T19:38:21.617Z,21.07
2022-11-25T19:40:49.451Z,33.17
2022-11-25T19:43:16.712Z,44.27
2022-11-25T19:45:44.501Z,39.97
2022-11-25T19:48:18.009Z,22.67
2022-11-25T19:50:48.098Z,21.50
2022-11-25T19:53:20.804Z,14.67
2022-11-25T19:55:48.564Z,7.00
2022-11-25T19:58:16.080Z,12.57
2022-11-25T20:00:45.555Z,10.77
2022-11-25T20:03:22.188Z,12.93
2022-11-25T20:05:52.069Z,7.20
2022-11-25T20:08:22.827Z,12.80
2022-11-25T20:10:50.505Z,11.27
2022-11-25T20:13:18.016Z,12.87
2022-11-25T20:15:45.875Z,12.03
2022-11-25T20:18:18.766Z,13.23
2022-11-25T20:20:48.736Z,11.83
2022-11-25T20:23:20.359Z,8.57
2022-11-25T20:25:49.270Z,12.00
2022-11-25T20:28:22.631Z,11.30
2022-11-25T20:30:50.866Z,13.77
2022-11-25T20:33:22.736Z,11.80
2022-11-25T20:36:02.196Z,12.27
2022-11-25T20:38:31.111Z,11.53
2022-11-25T20:40:59.693Z,9.67
2022-11-25T20:43:36.807Z,11.97
2022-11-25T20:46:04.243Z,12.63
2022-11-25T20:48:34.776Z,9.80
2022-11-25T20:51:03.674Z,13.73
2022-11-25T20:53:32.318Z,12.03
2022-11-25T20:56:00.290Z,12.40
2022-11-25T20:58:30.510Z,12.07
2022-11-25T21:00:58.762Z,14.60
2022-11-25T21:03:26.551Z,11.17
2022-11-25T21:05:55.385Z,10.83
2022-11-25T21:08:30.147Z,16.10
2022-11-25T21:10:58.806Z,9.80
2022-11-25T21:13:29.325Z,14.30
2022-11-25T21:15:57.652Z,11.00
2022-11-25T21:18:25.485Z,12.90
2022-11-25T21:20:55.696Z,14.47
2022-11-25T21:23:27.377Z,14.97
2022-11-25T21:26:02.623Z,15.70
2022-11-25T21:28:29.855Z,12.90
2022-11-25T21:30:57.117Z,43.93
2022-11-25T21:33:24.231Z,17.63
2022-11-25T21:35:51.528Z,18.73
2022-11-25T21:38:22.406Z,14.03
2022-11-25T21:40:52.857Z,18.27
2022-11-25T21:43:28.313Z,13.77
2022-11-25T21:46:07.411Z,12.70
2022-11-25T21:48:35.357Z,18.03
2022-11-25T21:51:02.620Z,13.00
2022-11-25T21:53:33.262Z,20.77
2022-11-25T21:56:12.773Z,12.70
2022-11-25T21:58:40.916Z,16.80
